createdAt,value
2022-10-12T00:02:12.888Z,33.50
2022-10-12T00:04:44.961Z,35.00
2022-10-12T00:07:17.598Z,35.00
2022-10-12T00:09:49.652Z,33.40
2022-10-12T00:12:21.964Z,35.20
2022-10-12T00:14:53.876Z,36.00
2022-10-12T00:17:26.117Z,34.40
2022-10-12T00:19:58.530Z,36.10
2022-10-12T00:22:30.948Z,34.00
2022-10-12T00:25:02.651Z,33.80
2022-10-12T00:27:35.957Z,33.00
2022-10-12T00:30:09.802Z,33.10
2022-10-12T00:32:41.882Z,35.40
2022-10-12T00:35:13.996Z,33.40
2022-10-12T00:37:46.076Z,34.50
2022-10-12T00:40:17.961Z,32.30
2022-10-12T00:42:50.117Z,34.90
2022-10-12T00:45:22.114Z,32.00
2022-10-12T00:47:58.003Z,32.30
2022-10-12T00:50:32.264Z,31.30
2022-10-12T00:53:09.127Z,31.20
2022-10-12T00:55:46.436Z,31.80
2022-10-12T00:58:19.971Z,32.00
2022-10-12T01:00:52.197Z,31.40
2022-10-12T01:03:25.751Z,31.70
2022-10-12T01:05:58.614Z,31.50
2022-10-12T01:08:31.555Z,30.80
2022-10-12T01:13:35.056Z,30.80
2022-10-12T01:16:14.939Z,29.80
2022-10-12T01:18:51.502Z,30.20
2022-10-12T01:21:24.625Z,30.10
2022-10-12T01:24:18.502Z,31.30
2022-10-12T01:27:08.210Z,30.70
2022-10-12T01:30:23.904Z,28.30
2022-10-12T01:33:16.146Z,31.00
2022-10-12T01:35:55.573Z,32.60
2022-10-12T01:38:36.251Z,28.50
2022-10-12T01:41:14.014Z,30.40
2022-10-12T01:43:47.440Z,30.90
2022-10-12T01:46:44.896Z,31.90
2022-10-12T01:49:20.365Z,31.10
2022-10-12T01:52:24.335Z,31.30
2022-10-12T01:55:18.482Z,31.10
2022-10-12T01:58:13.247Z,33.30
2022-10-12T02:00:51.172Z,32.20
2022-10-12T02:03:29.316Z,30.60
2022-10-12T02:06:05.916Z,33.40
2022-10-12T02:08:43.445Z,32.40
2022-10-12T02:11:17.792Z,29.60
2022-10-12T02:13:53.832Z,31.90
2022-10-12T02:16:29.902Z,30.70
2022-10-12T02:19:03.953Z,30.10
2022-10-12T02:21:37.833Z,29.60
2022-10-12T02:24:11.174Z,30.10
2022-10-12T02:26:46.725Z,32.50
2022-10-12T02:29:23.197Z,29.50
2022-10-12T02:32:02.138Z,30.50
2022-10-12T02:34:38.249Z,28.90
2022-10-12T02:37:16.717Z,30.30
2022-10-12T02:39:54.692Z,32.20
2022-10-12T02:42:41.840Z,32.80
2022-10-12T02:45:25.382Z,32.60
2022-10-12T02:47:59.547Z,31.50
2022-10-12T02:50:34.525Z,29.70
2022-10-12T02:53:08.593Z,30.90
2022-10-12T02:55:50.701Z,31.00
2022-10-12T02:58:23.315Z,30.10
2022-10-12T03:03:25.574Z,30.80
2022-10-12T03:05:58.117Z,33.30
2022-10-12T03:11:05.505Z,31.00
2022-10-12T03:13:38.499Z,30.30
2022-10-12T03:16:12.473Z,31.70
2022-10-12T03:18:44.712Z,30.90
2022-10-12T03:21:18.210Z,31.00
2022-10-12T03:23:49.896Z,31.30
2022-10-12T03:26:22.364Z,30.70
2022-10-12T03:28:55.693Z,30.10
2022-10-12T03:31:27.478Z,30.00
2022-10-12T03:33:59.193Z,31.00
2022-10-12T03:36:31.461Z,31.20
2022-10-12T03:39:04.407Z,31.40
2022-10-12T03:41:36.692Z,33.70
2022-10-12T03:46:39.446Z,30.00
2022-10-12T03:49:11.360Z,30.20
2022-10-12T03:51:43.156Z,28.60
2022-10-12T03:54:14.952Z,31.90
2022-10-12T03:56:46.557Z,21.80
2022-10-12T03:59:18.446Z,32.00
2022-10-12T04:01:50.350Z,31.00
2022-10-12T04:04:22.042Z,32.60
2022-10-12T04:06:53.864Z,32.80
2022-10-12T04:09:25.853Z,31.80
2022-10-12T04:11:57.552Z,32.40
2022-10-12T04:14:30.039Z,30.90
2022-10-12T04:17:02.340Z,31.50
2022-10-12T04:19:35.356Z,31.70
2022-10-12T04:24:37.742Z,30.60
2022-10-12T04:27:09.575Z,34.60
2022-10-12T04:29:41.141Z,33.00
2022-10-12T04:32:13.210Z,33.60
2022-10-12T04:34:45.210Z,30.70
2022-10-12T04:37:16.802Z,33.00
2022-10-12T04:39:48.540Z,29.70
2022-10-12T04:42:20.124Z,32.50
2022-10-12T04:44:52.921Z,34.00
2022-10-12T04:49:55.510Z,31.20
2022-10-12T04:52:27.966Z,30.70
2022-10-12T04:55:00.379Z,32.50
2022-10-12T04:57:32.833Z,30.50
2022-10-12T05:00:05.418Z,31.90
2022-10-12T05:02:38.913Z,33.60
2022-10-12T05:05:11.509Z,32.10
2022-10-12T05:07:43.460Z,32.00
2022-10-12T05:10:15.254Z,32.80
2022-10-12T05:12:46.957Z,31.50
2022-10-12T05:15:20.085Z,32.90
2022-10-12T05:17:52.093Z,30.90
2022-10-12T05:20:23.728Z,26.00
2022-10-12T05:23:01.971Z,33.20
2022-10-12T05:25:36.577Z,29.90
2022-10-12T05:28:09.315Z,34.00
2022-10-12T05:33:11.568Z,33.80
2022-10-12T05:35:47.640Z,32.50
2022-10-12T05:38:20.774Z,34.30
2022-10-12T05:40:56.416Z,32.90
2022-10-12T05:43:31.382Z,33.70
2022-10-12T05:46:03.354Z,34.20
2022-10-12T05:48:37.233Z,35.80
2022-10-12T05:51:09.107Z,34.20
2022-10-12T05:53:40.897Z,35.30
2022-10-12T05:56:13.028Z,36.40
2022-10-12T05:58:45.865Z,24.70
2022-10-12T06:01:18.038Z,32.20
2022-10-12T06:03:50.607Z,33.20
2022-10-12T06:06:22.492Z,33.90
2022-10-12T06:08:54.378Z,32.70
2022-10-12T06:11:26.425Z,35.60
2022-10-12T06:13:58.244Z,27.80
2022-10-12T06:16:29.870Z,30.60
2022-10-12T06:19:01.594Z,30.80
2022-10-12T06:21:34.520Z,33.60
2022-10-12T06:24:08.421Z,31.60
2022-10-12T06:26:40.159Z,33.10
2022-10-12T06:29:13.055Z,36.10
2022-10-12T06:31:47.771Z,24.90
2022-10-12T06:34:23.351Z,30.70
2022-10-12T06:36:59.469Z,23.70
2022-10-12T06:39:33.759Z,30.50
2022-10-12T06:42:08.080Z,32.00
2022-10-12T06:44:40.789Z,32.30
2022-10-12T06:47:12.592Z,33.50
2022-10-12T06:49:44.393Z,30.10
2022-10-12T06:52:16.111Z,23.40
2022-10-12T06:54:47.730Z,30.40
2022-10-12T06:57:19.421Z,32.80
2022-10-12T06:59:51.269Z,32.70
2022-10-12T07:02:23.621Z,21.30
2022-10-12T07:04:55.962Z,29.20
2022-10-12T07:07:27.812Z,30.10
2022-10-12T07:10:00.016Z,27.50
2022-10-12T07:12:32.379Z,27.70
2022-10-12T07:15:04.618Z,29.00
2022-10-12T07:17:36.921Z,18.80
2022-10-12T07:20:10.333Z,25.10
2022-10-12T07:22:42.613Z,22.20
2022-10-12T07:25:15.180Z,20.20
2022-10-12T07:27:49.896Z,21.10
2022-10-12T07:30:21.740Z,23.10
2022-10-12T07:32:54.816Z,23.00
2022-10-12T07:35:27.306Z,23.00
2022-10-12T07:37:59.053Z,21.10
2022-10-12T07:40:31.654Z,20.10
2022-10-12T07:45:49.489Z,18.20
2022-10-12T07:48:22.652Z,17.60
2022-10-12T07:50:54.404Z,17.90
2022-10-12T07:53:26.620Z,15.50
2022-10-12T07:56:03.634Z,14.30
2022-10-12T07:58:36.127Z,15.60
2022-10-12T08:01:10.047Z,17.20
2022-10-12T08:03:41.818Z,16.70
2022-10-12T08:06:17.197Z,14.60
2022-10-12T08:08:49.671Z,12.80
2022-10-12T08:11:21.796Z,13.10
2022-10-12T08:13:53.456Z,12.80
2022-10-12T08:16:25.829Z,13.80
2022-10-12T08:18:57.562Z,12.90
2022-10-12T08:21:29.424Z,12.60
2022-10-12T08:24:01.114Z,12.80
2022-10-12T08:26:33.450Z,12.70
2022-10-12T08:29:08.043Z,10.80
2022-10-12T08:31:40.460Z,11.80
2022-10-12T08:34:12.145Z,12.00
2022-10-12T08:36:43.990Z,11.50
2022-10-12T08:39:18.208Z,9.60
2022-10-12T08:41:59.879Z,9.30
2022-10-12T08:44:43.891Z,10.60
2022-10-12T08:47:21.032Z,7.30
2022-10-12T08:49:55.070Z,9.30
2022-10-12T08:52:32.983Z,6.60
2022-10-12T08:55:17.763Z,7.20
2022-10-12T08:57:50.200Z,6.30
2022-10-12T09:00:22.691Z,6.20
2022-10-12T09:03:07.299Z,8.10
2022-10-12T09:05:46.419Z,5.40
2022-10-12T09:08:28.556Z,6.60
2022-10-12T09:11:11.428Z,7.20
2022-10-12T09:13:48.424Z,6.90
2022-10-12T09:16:25.777Z,6.50
2022-10-12T09:18:59.858Z,5.90
2022-10-12T09:21:34.166Z,5.80
2022-10-12T09:24:13.881Z,8.30
2022-10-12T09:26:47.911Z,8.10
2022-10-12T09:29:28.175Z,8.50
2022-10-12T09:32:22.388Z,8.20
2022-10-12T09:34:54.895Z,9.80
2022-10-12T09:37:30.213Z,8.40
2022-10-12T09:40:03.130Z,10.30
2022-10-12T09:42:35.563Z,8.70
2022-10-12T09:45:18.196Z,7.90
2022-10-12T09:48:13.838Z,8.50
2022-10-12T09:50:49.964Z,8.20
2022-10-12T09:53:30.893Z,8.30
2022-10-12T09:56:09.776Z,6.80
2022-10-12T09:58:54.217Z,7.30
2022-10-12T10:01:31.346Z,6.50
2022-10-12T10:04:18.084Z,5.90
2022-10-12T10:06:50.816Z,3.90
2022-10-12T10:09:39.854Z,7.00
2022-10-12T10:12:25.644Z,7.90
2022-10-12T10:14:59.730Z,7.30
2022-10-12T10:17:33.909Z,7.50
2022-10-12T10:20:22.542Z,7.60
2022-10-12T10:22:54.793Z,6.00
2022-10-12T10:25:27.674Z,6.80
2022-10-12T10:28:23.934Z,7.40
2022-10-12T10:31:03.123Z,10.50
2022-10-12T10:33:37.075Z,6.60
2022-10-12T10:36:20.136Z,6.00
2022-10-12T10:41:32.549Z,5.20
2022-10-12T10:44:05.042Z,4.50
2022-10-12T10:46:39.071Z,4.30
2022-10-12T10:49:24.281Z,4.10
2022-10-12T10:51:59.710Z,3.80
2022-10-12T10:54:34.626Z,3.50
2022-10-12T10:57:12.253Z,3.80
2022-10-12T10:59:52.741Z,3.50
2022-10-12T11:02:35.292Z,3.90
2022-10-12T11:05:14.110Z,5.40
2022-10-12T11:07:51.211Z,5.50
2022-10-12T11:10:32.076Z,3.60
2022-10-12T11:13:08.110Z,3.70
2022-10-12T11:15:44.090Z,3.70
2022-10-12T11:18:20.256Z,3.70
2022-10-12T11:20:57.738Z,4.40
2022-10-12T11:23:39.208Z,3.30
2022-10-12T11:26:18.778Z,3.90
2022-10-12T11:28:50.971Z,4.80
2022-10-12T11:31:28.461Z,3.10
2022-10-12T11:34:08.004Z,3.20
2022-10-12T11:37:14.320Z,2.90
2022-10-12T11:39:42.105Z,3.00
2022-10-12T11:42:22.741Z,3.50
2022-10-12T11:44:56.183Z,3.20
2022-10-12T11:47:37.432Z,3.10
2022-10-12T11:50:25.563Z,2.60
2022-10-12T11:53:01.541Z,2.60
2022-10-12T11:55:47.581Z,2.90
2022-10-12T11:58:36.316Z,2.30
2022-10-12T12:01:30.821Z,2.60
2022-10-12T12:04:48.582Z,2.60
2022-10-12T12:07:44.845Z,3.10
2022-10-12T12:11:04.309Z,3.60
2022-10-12T12:13:36.909Z,2.70
2022-10-12T12:16:31.820Z,2.70
2022-10-12T12:19:42.325Z,2.40
2022-10-12T12:22:18.972Z,3.00
2022-10-12T12:25:04.211Z,3.70
2022-10-12T12:27:41.210Z,2.90
2022-10-12T12:30:28.887Z,3.60
2022-10-12T12:33:03.295Z,5.30
2022-10-12T12:35:40.085Z,3.90
2022-10-12T12:38:21.470Z,3.70
2022-10-12T12:41:15.095Z,4.40
2022-10-12T12:44:04.253Z,3.30
2022-10-12T12:47:43.445Z,4.10
2022-10-12T12:50:26.576Z,3.20
2022-10-12T12:53:06.637Z,3.40
2022-10-12T12:56:06.493Z,3.60
2022-10-12T12:59:08.389Z,3.60
2022-10-12T13:02:02.002Z,3.50
2022-10-12T13:04:50.401Z,3.70
2022-10-12T13:07:54.877Z,4.70
2022-10-12T13:10:38.853Z,3.70
2022-10-12T13:13:36.667Z,5.10
2022-10-12T13:17:09.664Z,3.60
2022-10-12T13:19:21.932Z,4.50
2022-10-12T13:21:56.986Z,4.60
2022-10-12T13:24:32.870Z,4.60
2022-10-12T13:27:14.381Z,4.20
2022-10-12T13:29:51.280Z,3.70
2022-10-12T13:32:33.812Z,4.10
2022-10-12T13:35:14.143Z,3.70
2022-10-12T13:37:46.815Z,3.90
2022-10-12T13:40:33.367Z,4.60
2022-10-12T13:43:26.949Z,3.60
2022-10-12T13:45:59.376Z,4.90
2022-10-12T13:48:58.114Z,4.80
2022-10-12T13:53:59.951Z,3.20
2022-10-12T13:56:32.790Z,3.80
2022-10-12T14:01:53.662Z,5.10
2022-10-12T14:04:28.304Z,5.40
2022-10-12T14:07:04.895Z,4.60
2022-10-12T14:09:45.586Z,3.80
2022-10-12T14:12:22.997Z,3.90
2022-10-12T14:14:58.117Z,4.00
2022-10-12T14:17:30.501Z,3.90
2022-10-12T14:20:19.156Z,3.90
2022-10-12T14:22:52.353Z,4.60
2022-10-12T14:25:28.142Z,3.90
2022-10-12T14:28:03.760Z,4.80
2022-10-12T14:30:39.087Z,3.60
2022-10-12T14:33:26.038Z,4.40
2022-10-12T14:39:20.303Z,4.20
2022-10-12T14:41:54.700Z,4.50
2022-10-12T14:44:29.229Z,4.00
2022-10-12T14:47:06.340Z,4.20
2022-10-12T14:49:47.336Z,3.80
2022-10-12T14:52:23.433Z,4.50
2022-10-12T14:54:57.473Z,5.40
2022-10-12T14:57:32.046Z,4.50
2022-10-12T15:00:04.989Z,4.50
2022-10-12T15:02:40.517Z,4.60
2022-10-12T15:05:15.479Z,5.20
2022-10-12T15:07:48.148Z,4.00
2022-10-12T15:10:21.596Z,4.80
2022-10-12T15:12:53.961Z,3.30
2022-10-12T15:15:35.506Z,3.50
2022-10-12T15:18:09.155Z,4.20
2022-10-12T15:20:45.362Z,3.20
2022-10-12T15:23:21.193Z,3.80
2022-10-12T15:28:27.777Z,5.30
2022-10-12T15:31:17.124Z,4.80
2022-10-12T15:33:49.489Z,12.60
2022-10-12T15:36:21.261Z,4.00
2022-10-12T15:38:53.007Z,4.40
2022-10-12T15:41:29.532Z,4.10
2022-10-12T15:44:01.761Z,4.50
2022-10-12T15:46:33.496Z,4.40
2022-10-12T15:49:05.216Z,4.20
2022-10-12T15:51:41.221Z,3.40
2022-10-12T15:54:13.650Z,4.10
2022-10-12T15:56:45.384Z,4.30
2022-10-12T15:59:17.331Z,6.30
2022-10-12T16:01:48.924Z,5.20
2022-10-12T16:04:22.603Z,4.70
2022-10-12T16:06:54.602Z,4.40
2022-10-12T16:09:26.944Z,5.30
2022-10-12T16:11:58.867Z,4.60
2022-10-12T16:14:31.533Z,4.90
2022-10-12T16:22:06.781Z,4.60
2022-10-12T16:24:39.653Z,4.90
2022-10-12T16:27:11.859Z,5.60
2022-10-12T16:29:43.938Z,6.20
2022-10-12T16:32:16.014Z,5.60
2022-10-12T16:34:48.314Z,6.10
2022-10-12T16:37:20.104Z,6.10
2022-10-12T16:39:53.495Z,9.00
2022-10-12T16:42:25.852Z,6.90
2022-10-12T16:44:57.735Z,6.30
2022-10-12T16:47:29.572Z,7.50
2022-10-12T16:50:01.693Z,6.10
2022-10-12T16:52:35.286Z,8.30
2022-10-12T16:55:08.509Z,7.50
2022-10-12T16:57:42.708Z,7.20
2022-10-12T17:00:19.125Z,8.10
2022-10-12T17:02:53.030Z,6.80
2022-10-12T17:05:29.166Z,7.70
2022-10-12T17:08:01.554Z,8.00
2022-10-12T17:10:33.465Z,7.30
2022-10-12T17:13:04.989Z,7.10
2022-10-12T17:15:39.510Z,7.50
2022-10-12T17:18:11.465Z,8.30
2022-10-12T17:20:43.454Z,7.60
2022-10-12T17:23:15.098Z,7.60
2022-10-12T17:25:46.823Z,7.30
2022-10-12T17:28:18.936Z,6.40
2022-10-12T17:30:51.121Z,7.20
2022-10-12T17:33:22.818Z,7.30
2022-10-12T17:35:54.449Z,7.10
2022-10-12T17:38:26.756Z,9.70
2022-10-12T17:40:58.921Z,8.60
2022-10-12T17:43:31.715Z,9.00
2022-10-12T17:46:08.394Z,8.90
2022-10-12T17:48:42.021Z,9.00
2022-10-12T17:51:16.213Z,9.70
2022-10-12T17:53:47.911Z,9.70
2022-10-12T17:56:20.027Z,10.20
2022-10-12T17:58:55.784Z,7.50
2022-10-12T18:01:28.746Z,9.30
2022-10-12T18:04:02.335Z,9.50
2022-10-12T18:06:35.624Z,10.30
2022-10-12T18:09:08.834Z,11.30
2022-10-12T18:11:44.340Z,10.20
2022-10-12T18:14:16.808Z,13.70
2022-10-12T18:16:49.596Z,10.50
2022-10-12T18:19:21.296Z,11.20
2022-10-12T18:21:53.419Z,11.40
2022-10-12T18:24:25.486Z,12.40
2022-10-12T18:26:58.476Z,13.00
2022-10-12T18:29:30.958Z,13.70
2022-10-12T18:32:06.696Z,14.80
2022-10-12T18:34:40.638Z,15.60
2022-10-12T18:37:13.075Z,16.80
2022-10-12T18:39:45.540Z,15.30
2022-10-12T18:42:18.273Z,15.40
2022-10-12T18:47:24.605Z,17.20
2022-10-12T18:49:57.727Z,16.60
2022-10-12T18:55:00.029Z,16.70
2022-10-12T18:57:35.344Z,12.50
2022-10-12T19:00:13.448Z,16.60
2022-10-12T19:02:45.426Z,17.90
2022-10-12T19:05:17.433Z,18.00
2022-10-12T19:07:50.278Z,19.40
2022-10-12T19:10:23.625Z,18.40
2022-10-12T19:12:56.647Z,20.30
2022-10-12T19:15:28.778Z,17.70
2022-10-12T19:18:00.617Z,17.90
2022-10-12T19:20:32.773Z,18.60
2022-10-12T19:23:04.611Z,17.70
2022-10-12T19:25:39.938Z,17.90
2022-10-12T19:28:13.469Z,18.20
2022-10-12T19:30:45.723Z,19.10
2022-10-12T19:33:18.957Z,16.60
2022-10-12T19:35:51.959Z,17.90
2022-10-12T19:38:24.781Z,19.30
2022-10-12T19:40:57.152Z,18.20
2022-10-12T19:43:29.301Z,18.00
2022-10-12T19:46:04.955Z,18.80
2022-10-12T19:48:37.849Z,19.20
2022-10-12T19:51:13.559Z,18.60
2022-10-12T19:53:45.766Z,17.60
2022-10-12T19:56:20.981Z,18.90
2022-10-12T19:58:56.640Z,19.50
2022-10-12T20:01:33.912Z,19.40
2022-10-12T20:04:09.887Z,19.30
2022-10-12T20:06:42.988Z,18.90
2022-10-12T20:09:16.078Z,18.10
2022-10-12T20:11:48.276Z,21.70
2022-10-12T20:14:20.587Z,15.30
2022-10-12T20:16:52.450Z,21.20
2022-10-12T20:19:24.325Z,14.90
2022-10-12T20:21:56.255Z,21.10
2022-10-12T20:24:28.321Z,21.70
2022-10-12T20:27:00.191Z,22.80
2022-10-12T20:29:32.371Z,23.20
2022-10-12T20:32:06.788Z,22.80
2022-10-12T20:34:38.664Z,20.10
2022-10-12T20:37:11.239Z,21.20
2022-10-12T20:39:43.873Z,19.70
2022-10-12T20:42:20.613Z,20.70
2022-10-12T20:44:53.603Z,22.50
2022-10-12T20:47:26.991Z,23.80
2022-10-12T20:49:58.865Z,21.70
2022-10-12T20:52:30.676Z,22.30
2022-10-12T20:55:03.541Z,24.50
2022-10-12T20:57:35.516Z,22.90
2022-10-12T21:00:10.458Z,22.80
2022-10-12T21:02:42.888Z,22.90
2022-10-12T21:05:14.645Z,21.90
2022-10-12T21:07:46.938Z,22.80
2022-10-12T21:10:18.925Z,23.00
2022-10-12T21:12:50.745Z,23.20
2022-10-12T21:15:22.488Z,16.30
2022-10-12T21:17:54.217Z,23.30
2022-10-12T21:20:27.004Z,23.20
2022-10-12T21:22:59.817Z,21.50
2022-10-12T21:28:02.380Z,21.10
2022-10-12T21:30:34.106Z,21.60
2022-10-12T21:33:06.003Z,25.40
2022-10-12T21:35:37.927Z,22.00
2022-10-12T21:38:10.758Z,23.70
2022-10-12T21:40:42.451Z,22.40
2022-10-12T21:43:14.190Z,23.50
2022-10-12T21:45:46.025Z,16.80
2022-10-12T21:48:17.685Z,23.60
2022-10-12T21:50:49.338Z,23.70
2022-10-12T21:53:21.320Z,24.80
2022-10-12T21:55:54.004Z,24.40
2022-10-12T21:58:26.083Z,25.90
2022-10-12T22:01:08.824Z,25.50
2022-10-12T22:03:41.124Z,25.60
2022-10-12T22:06:16.996Z,24.90
2022-10-12T22:08:53.046Z,27.20
2022-10-12T22:11:27.209Z,25.10
2022-10-12T22:14:04.107Z,23.90
2022-10-12T22:16:38.724Z,23.30
2022-10-12T22:19:15.122Z,23.30
2022-10-12T22:21:47.589Z,23.90
2022-10-12T22:24:19.892Z,24.30
2022-10-12T22:26:52.345Z,23.90
2022-10-12T22:29:24.036Z,25.60
2022-10-12T22:31:55.849Z,24.80
2022-10-12T22:34:27.621Z,25.20
2022-10-12T22:37:01.099Z,27.00
2022-10-12T22:39:33.628Z,24.60
2022-10-12T22:42:06.524Z,24.90
2022-10-12T22:44:38.695Z,25.00
2022-10-12T22:47:11.925Z,25.80
2022-10-12T22:49:43.511Z,25.30
2022-10-12T22:52:15.186Z,26.60
2022-10-12T22:54:49.963Z,26.30
2022-10-12T22:57:22.747Z,27.60
2022-10-12T23:02:26.329Z,25.70
2022-10-12T23:04:58.487Z,26.50
2022-10-12T23:07:31.109Z,28.30
2022-10-12T23:10:03.616Z,26.10
2022-10-12T23:12:36.133Z,28.20
2022-10-12T23:15:09.249Z,28.20
2022-10-12T23:17:40.804Z,27.60
2022-10-12T23:20:14.017Z,27.90
2022-10-12T23:22:45.923Z,27.60
2022-10-12T23:25:17.934Z,21.80
2022-10-12T23:27:51.005Z,21.60
2022-10-12T23:30:22.675Z,28.80
2022-10-12T23:32:54.761Z,30.30
2022-10-12T23:37:59.284Z,29.80
2022-10-12T23:40:31.443Z,27.60
2022-10-12T23:43:03.051Z,19.90
2022-10-12T23:45:34.887Z,29.20
2022-10-12T23:48:07.392Z,18.00
2022-10-12T23:50:40.063Z,28.30
2022-10-12T23:53:12.446Z,28.50
2022-10-12T23:55:44.612Z,29.10
2022-10-12T23:58:16.558Z,29.50
